createdAt,value
2022-11-16T00:01:47.989Z,10.86
2022-11-16T00:04:15.321Z,10.83
2022-11-16T00:06:42.551Z,10.82
2022-11-16T00:09:24.893Z,10.81
2022-11-16T00:12:02.270Z,10.84
2022-11-16T00:14:35.015Z,10.80
2022-11-16T00:17:04.051Z,10.81
2022-11-16T00:19:31.618Z,10.80
2022-11-16T00:22:00.110Z,10.79
2022-11-16T00:24:27.371Z,10.79
2022-11-16T00:26:56.164Z,10.75
2022-11-16T00:29:27.284Z,10.76
2022-11-16T00:31:55.536Z,10.77
2022-11-16T00:34:23.967Z,10.77
2022-11-16T00:36:51.656Z,10.77
2022-11-16T00:39:19.893Z,10.77
2022-11-16T00:41:48.845Z,10.77
2022-11-16T00:44:16.476Z,10.78
2022-11-16T00:46:43.752Z,10.78
2022-11-16T00:49:11.558Z,10.78
2022-11-16T00:51:38.800Z,10.76
2022-11-16T00:54:08.956Z,10.76
2022-11-16T00:56:37.986Z,10.76
2022-11-16T00:59:06.899Z,10.75
2022-11-16T01:01:34.659Z,10.76
2022-11-16T01:04:02.105Z,10.72
2022-11-16T01:06:29.325Z,10.72
2022-11-16T01:08:56.681Z,10.75
2022-11-16T01:11:50.405Z,10.84
2022-11-16T01:14:18.366Z,10.85
2022-11-16T01:16:49.548Z,10.81
2022-11-16T01:19:16.721Z,10.77
2022-11-16T01:21:43.916Z,10.74
2022-11-16T01:24:11.316Z,10.75
2022-11-16T01:26:38.688Z,10.75
2022-11-16T01:29:06.607Z,10.71
2022-11-16T01:31:38.623Z,10.71
2022-11-16T01:34:05.882Z,10.71
2022-11-16T01:36:33.257Z,10.72
2022-11-16T01:39:05.002Z,10.71
2022-11-16T01:41:44.314Z,10.72
2022-11-16T01:44:33.303Z,10.71
2022-11-16T01:47:17.468Z,10.68
2022-11-16T01:49:56.010Z,10.70
2022-11-16T01:52:35.981Z,10.69
2022-11-16T01:55:04.423Z,10.69
2022-11-16T01:57:47.495Z,10.69
2022-11-16T02:00:17.115Z,10.69
2022-11-16T02:02:54.432Z,10.69
2022-11-16T02:06:20.084Z,10.70
2022-11-16T02:09:38.531Z,10.71
2022-11-16T02:13:07.473Z,10.70
2022-11-16T02:16:07.993Z,10.72
2022-11-16T02:19:22.732Z,10.71
2022-11-16T02:22:27.362Z,10.73
2022-11-16T02:25:22.718Z,10.72
2022-11-16T02:28:25.437Z,10.75
2022-11-16T02:30:57.810Z,10.78
2022-11-16T02:33:36.923Z,10.79
2022-11-16T02:36:13.811Z,10.82
2022-11-16T02:38:51.627Z,10.82
2022-11-16T02:41:25.307Z,10.85
2022-11-16T02:44:13.882Z,10.85
2022-11-16T02:46:48.631Z,10.87
2022-11-16T02:49:19.584Z,10.83
2022-11-16T02:51:48.008Z,10.84
2022-11-16T02:54:20.440Z,10.83
2022-11-16T02:57:03.584Z,10.84
2022-11-16T02:59:41.964Z,10.86
2022-11-16T03:02:50.422Z,10.85
2022-11-16T03:05:32.041Z,10.86
2022-11-16T03:08:16.999Z,10.85
2022-11-16T03:11:12.416Z,10.86
2022-11-16T03:13:41.962Z,10.85
2022-11-16T03:16:38.496Z,10.84
2022-11-16T03:19:13.066Z,10.84
2022-11-16T03:22:00.414Z,10.81
2022-11-16T03:24:27.977Z,10.79
2022-11-16T03:27:13.225Z,10.77
2022-11-16T03:30:05.944Z,10.77
2022-11-16T03:33:02.482Z,10.77
2022-11-16T03:35:56.689Z,10.73
2022-11-16T03:38:27.879Z,10.72
2022-11-16T03:41:06.458Z,10.70
2022-11-16T03:43:36.423Z,10.69
2022-11-16T03:46:05.742Z,10.67
2022-11-16T03:48:39.939Z,10.64
2022-11-16T03:51:14.201Z,10.61
2022-11-16T03:53:42.852Z,10.57
2022-11-16T03:56:11.471Z,10.55
2022-11-16T03:58:39.525Z,10.53
2022-11-16T04:01:06.927Z,10.51
2022-11-16T04:03:34.270Z,10.49
2022-11-16T04:06:20.086Z,10.47
2022-11-16T04:09:06.042Z,10.44
2022-11-16T04:11:54.703Z,10.42
2022-11-16T04:14:44.905Z,10.38
2022-11-16T04:17:36.314Z,10.36
2022-11-16T04:20:24.291Z,10.33
2022-11-16T04:23:33.686Z,10.27
2022-11-16T04:26:06.334Z,10.22
2022-11-16T04:28:35.891Z,10.21
2022-11-16T04:31:25.156Z,10.16
2022-11-16T04:34:19.513Z,10.10
2022-11-16T04:37:09.802Z,10.06
2022-11-16T04:39:37.020Z,10.01
2022-11-16T04:42:17.314Z,9.96
2022-11-16T04:45:05.487Z,9.92
2022-11-16T04:47:45.396Z,9.89
2022-11-16T04:50:12.676Z,9.87
2022-11-16T04:52:41.364Z,9.84
2022-11-16T04:55:13.021Z,9.82
2022-11-16T04:57:40.629Z,9.79
2022-11-16T05:00:09.987Z,9.80
2022-11-16T05:02:39.811Z,9.80
2022-11-16T05:05:09.143Z,9.80
2022-11-16T05:07:38.892Z,9.81
2022-11-16T05:10:14.060Z,9.81
2022-11-16T05:12:41.899Z,9.84
2022-11-16T05:15:11.255Z,9.84
2022-11-16T05:17:39.809Z,9.84
2022-11-16T05:20:30.969Z,9.82
2022-11-16T05:23:03.379Z,9.78
2022-11-16T05:25:39.537Z,9.78
2022-11-16T05:28:10.646Z,9.79
2022-11-16T05:30:41.031Z,9.80
2022-11-16T05:33:08.412Z,9.78
2022-11-16T05:35:39.633Z,9.76
2022-11-16T05:38:07.339Z,9.73
2022-11-16T05:40:39.349Z,9.71
2022-11-16T05:43:06.958Z,9.68
2022-11-16T05:45:39.983Z,9.64
2022-11-16T05:48:09.153Z,9.60
2022-11-16T05:50:42.377Z,9.55
2022-11-16T05:53:20.164Z,9.51
2022-11-16T05:55:48.475Z,9.47
2022-11-16T05:58:15.780Z,9.40
2022-11-16T06:00:43.060Z,9.36
2022-11-16T06:03:11.370Z,9.33
2022-11-16T06:05:40.662Z,9.27
2022-11-16T06:08:09.826Z,9.23
2022-11-16T06:10:37.113Z,9.19
2022-11-16T06:13:05.532Z,9.14
2022-11-16T06:15:38.588Z,9.09
2022-11-16T06:18:09.019Z,9.05
2022-11-16T06:20:40.129Z,8.99
2022-11-16T06:23:07.923Z,8.96
2022-11-16T06:25:39.856Z,8.91
2022-11-16T06:28:08.281Z,8.89
2022-11-16T06:30:38.481Z,8.85
2022-11-16T06:33:08.005Z,8.81
2022-11-16T06:35:35.387Z,8.77
2022-11-16T06:38:03.795Z,8.73
2022-11-16T06:40:32.711Z,8.71
2022-11-16T06:43:02.947Z,8.68
2022-11-16T06:45:30.227Z,8.66
2022-11-16T06:48:00.212Z,8.63
2022-11-16T06:50:27.495Z,8.59
2022-11-16T06:52:55.112Z,8.57
2022-11-16T06:55:23.420Z,8.55
2022-11-16T06:57:50.701Z,8.53
2022-11-16T07:00:18.728Z,8.49
2022-11-16T07:02:47.663Z,8.47
2022-11-16T07:05:18.045Z,8.44
2022-11-16T07:07:47.053Z,8.43
2022-11-16T07:10:14.478Z,8.39
2022-11-16T07:12:43.047Z,8.38
2022-11-16T07:15:11.212Z,8.38
2022-11-16T07:17:42.444Z,8.37
2022-11-16T07:20:12.007Z,8.35
2022-11-16T07:22:39.933Z,8.33
2022-11-16T07:25:08.593Z,8.32
2022-11-16T07:27:35.828Z,8.32
2022-11-16T07:30:05.592Z,8.31
2022-11-16T07:32:59.556Z,8.31
2022-11-16T07:35:46.906Z,8.30
2022-11-16T07:38:17.787Z,8.31
2022-11-16T07:40:46.488Z,8.32
2022-11-16T07:43:18.797Z,8.32
2022-11-16T07:46:46.405Z,8.32
2022-11-16T07:49:18.156Z,8.32
2022-11-16T07:52:11.178Z,8.32
2022-11-16T07:54:55.413Z,8.32
2022-11-16T07:57:25.330Z,8.32
2022-11-16T07:59:54.459Z,8.32
2022-11-16T08:02:21.659Z,8.30
2022-11-16T08:04:51.086Z,8.30
2022-11-16T08:07:26.407Z,8.31
2022-11-16T08:09:56.684Z,8.30
2022-11-16T08:12:24.502Z,8.31
2022-11-16T08:14:52.825Z,8.32
2022-11-16T08:17:20.325Z,8.33
2022-11-16T08:19:48.013Z,8.34
2022-11-16T08:22:16.769Z,8.37
2022-11-16T08:24:45.827Z,8.39
2022-11-16T08:27:15.372Z,8.40
2022-11-16T08:29:44.173Z,8.46
2022-11-16T08:32:11.510Z,8.47
2022-11-16T08:34:38.778Z,8.50
2022-11-16T08:37:06.701Z,8.52
2022-11-16T08:39:43.942Z,8.56
2022-11-16T08:42:11.474Z,8.59
2022-11-16T08:44:39.816Z,8.63
2022-11-16T08:47:11.676Z,8.65
2022-11-16T08:49:51.435Z,8.67
2022-11-16T08:52:20.565Z,8.68
2022-11-16T08:54:49.766Z,8.71
2022-11-16T08:57:17.649Z,8.74
2022-11-16T08:59:48.191Z,8.76
2022-11-16T09:02:15.408Z,8.78
2022-11-16T09:04:43.804Z,8.81
2022-11-16T09:07:11.117Z,8.84
2022-11-16T09:09:38.338Z,8.87
2022-11-16T09:12:05.916Z,8.91
2022-11-16T09:14:33.295Z,8.94
2022-11-16T09:17:00.473Z,8.97
2022-11-16T09:19:27.626Z,8.99
2022-11-16T09:21:54.769Z,9.02
2022-11-16T09:24:22.019Z,9.04
2022-11-16T09:26:49.289Z,9.06
2022-11-16T09:29:16.627Z,9.09
2022-11-16T09:31:44.756Z,9.15
2022-11-16T09:34:12.065Z,9.19
2022-11-16T09:36:39.267Z,9.22
2022-11-16T09:42:29.674Z,9.27
2022-11-16T09:45:23.182Z,9.30
2022-11-16T09:47:59.339Z,9.31
2022-11-16T09:51:08.196Z,9.37
2022-11-16T09:54:03.354Z,9.43
2022-11-16T09:56:37.682Z,9.46
2022-11-16T09:59:29.338Z,9.51
2022-11-16T10:02:19.533Z,9.60
2022-11-16T10:05:08.564Z,9.69
2022-11-16T10:08:13.417Z,10.13
2022-11-16T10:11:25.639Z,10.81
2022-11-16T10:14:27.805Z,11.48
2022-11-16T10:17:11.251Z,12.08
2022-11-16T10:21:02.090Z,12.50
2022-11-16T10:24:01.253Z,13.01
2022-11-16T10:27:24.060Z,13.40
2022-11-16T10:30:21.914Z,13.65
2022-11-16T10:33:10.977Z,13.75
2022-11-16T10:35:47.915Z,13.66
2022-11-16T10:38:25.619Z,13.55
2022-11-16T10:41:03.165Z,13.40
2022-11-16T10:43:33.766Z,13.27
2022-11-16T10:46:40.243Z,13.18
2022-11-16T10:49:53.135Z,13.16
2022-11-16T10:52:20.445Z,13.22
2022-11-16T10:54:47.670Z,13.32
2022-11-16T10:57:14.944Z,13.46
2022-11-16T10:59:55.577Z,13.50
2022-11-16T11:02:33.595Z,13.52
2022-11-16T11:05:21.437Z,13.63
2022-11-16T11:08:02.465Z,13.73
2022-11-16T11:10:32.657Z,13.80
2022-11-16T11:13:11.892Z,13.92
2022-11-16T11:15:44.659Z,14.06
2022-11-16T11:18:25.654Z,13.97
2022-11-16T11:21:17.176Z,13.79
2022-11-16T11:24:02.302Z,13.56
2022-11-16T11:26:41.698Z,13.40
2022-11-16T11:29:27.037Z,13.31
2022-11-16T11:32:05.722Z,13.14
2022-11-16T11:34:48.523Z,13.07
2022-11-16T11:37:25.572Z,13.15
2022-11-16T11:40:27.946Z,13.09
2022-11-16T11:43:06.633Z,12.96
2022-11-16T11:45:47.755Z,12.88
2022-11-16T11:49:00.041Z,12.94
2022-11-16T11:51:40.528Z,12.90
2022-11-16T11:54:22.326Z,12.78
2022-11-16T11:56:49.512Z,12.78
2022-11-16T11:59:24.061Z,12.75
2022-11-16T12:02:33.398Z,12.68
2022-11-16T12:05:45.612Z,12.58
2022-11-16T12:08:33.675Z,12.52
2022-11-16T12:12:01.773Z,12.51
2022-11-16T12:15:19.306Z,12.48
2022-11-16T12:18:32.664Z,12.45
2022-11-16T12:21:17.637Z,12.38
2022-11-16T12:24:06.381Z,12.42
2022-11-16T12:27:27.095Z,12.52
2022-11-16T12:30:10.451Z,12.52
2022-11-16T12:32:52.967Z,12.53
2022-11-16T12:36:06.359Z,12.65
2022-11-16T12:39:00.316Z,12.91
2022-11-16T12:41:58.836Z,13.04
2022-11-16T12:44:43.963Z,13.69
2022-11-16T12:47:55.429Z,14.29
2022-11-16T12:51:02.857Z,14.60
2022-11-16T12:54:25.832Z,15.12
2022-11-16T12:57:35.637Z,15.24
2022-11-16T13:00:11.967Z,15.00
2022-11-16T13:03:21.596Z,15.04
2022-11-16T13:06:06.685Z,14.98
2022-11-16T13:09:11.073Z,14.82
2022-11-16T13:11:58.169Z,14.67
2022-11-16T13:14:53.386Z,14.71
2022-11-16T13:17:32.812Z,14.58
2022-11-16T13:20:34.947Z,14.64
2022-11-16T13:23:18.397Z,14.39
2022-11-16T13:26:23.912Z,14.14
2022-11-16T13:29:28.567Z,13.90
2022-11-16T13:32:29.570Z,13.64
2022-11-16T13:35:05.180Z,13.70
2022-11-16T13:37:38.479Z,13.65
2022-11-16T13:40:05.574Z,13.54
2022-11-16T13:42:57.420Z,13.38
2022-11-16T13:45:29.123Z,13.25
2022-11-16T13:48:00.647Z,13.19
2022-11-16T13:50:48.723Z,13.31
2022-11-16T13:54:25.077Z,13.54
2022-11-16T13:56:28.361Z,13.65
2022-11-16T13:58:58.281Z,13.79
2022-11-16T14:01:26.733Z,13.81
2022-11-16T14:05:04.864Z,13.74
2022-11-16T14:07:51.653Z,13.68
2022-11-16T14:10:33.991Z,13.50
2022-11-16T14:13:26.324Z,13.34
2022-11-16T14:16:22.729Z,13.19
2022-11-16T14:19:00.556Z,13.28
2022-11-16T14:22:00.075Z,13.44
2022-11-16T14:24:50.705Z,13.61
2022-11-16T14:27:56.675Z,13.71
2022-11-16T14:30:32.535Z,13.75
2022-11-16T14:32:59.856Z,13.85
2022-11-16T14:35:39.514Z,14.00
2022-11-16T14:38:32.478Z,13.97
2022-11-16T14:41:04.868Z,13.86
2022-11-16T14:43:44.500Z,13.66
2022-11-16T14:46:35.947Z,13.52
2022-11-16T14:49:04.900Z,13.32
2022-11-16T14:51:56.762Z,13.16
2022-11-16T14:54:55.595Z,13.01
2022-11-16T14:57:24.243Z,12.88
2022-11-16T15:00:26.932Z,12.76
2022-11-16T15:03:02.068Z,12.64
2022-11-16T15:05:36.573Z,12.54
2022-11-16T15:08:26.400Z,12.45
2022-11-16T15:10:53.704Z,12.33
2022-11-16T15:13:25.164Z,12.20
2022-11-16T15:16:31.012Z,12.07
2022-11-16T15:19:01.781Z,11.96
2022-11-16T15:21:29.512Z,11.84
2022-11-16T15:26:44.092Z,11.64
2022-11-16T15:29:20.881Z,11.56
2022-11-16T15:31:49.281Z,11.46
2022-11-16T15:34:20.657Z,11.39
2022-11-16T15:36:48.750Z,11.34
2022-11-16T15:39:36.428Z,11.28
2022-11-16T15:42:04.504Z,11.21
2022-11-16T15:44:33.974Z,11.11
2022-11-16T15:47:03.798Z,11.05
2022-11-16T15:49:40.723Z,11.00
2022-11-16T15:52:08.207Z,10.98
2022-11-16T15:54:55.776Z,10.97
2022-11-16T15:57:24.984Z,10.95
2022-11-16T15:59:56.838Z,10.92
2022-11-16T16:02:31.609Z,10.88
2022-11-16T16:04:58.788Z,10.86
2022-11-16T16:07:43.142Z,10.82
2022-11-16T16:10:19.509Z,10.73
2022-11-16T16:13:01.826Z,10.70
2022-11-16T16:15:34.778Z,10.62
2022-11-16T16:18:12.161Z,10.56
2022-11-16T16:20:39.389Z,10.55
2022-11-16T16:23:13.455Z,10.50
2022-11-16T16:25:42.035Z,10.45
2022-11-16T16:28:12.572Z,10.38
2022-11-16T16:30:39.812Z,10.30
2022-11-16T16:33:07.255Z,10.26
2022-11-16T16:35:34.621Z,10.22
2022-11-16T16:38:01.888Z,10.20
2022-11-16T16:40:29.733Z,10.16
2022-11-16T16:42:58.029Z,10.15
2022-11-16T16:45:41.829Z,10.11
2022-11-16T16:48:12.614Z,10.07
2022-11-16T16:50:40.138Z,10.02
2022-11-16T16:53:10.497Z,9.96
2022-11-16T16:55:37.908Z,9.93
2022-11-16T16:58:06.296Z,9.90
2022-11-16T17:00:33.910Z,9.88
2022-11-16T17:03:01.181Z,9.84
2022-11-16T17:05:30.795Z,9.83
2022-11-16T17:07:57.968Z,9.82
2022-11-16T17:10:25.170Z,9.84
2022-11-16T17:12:57.189Z,9.83
2022-11-16T17:15:24.941Z,9.77
2022-11-16T17:17:52.197Z,9.77
2022-11-16T17:20:19.593Z,9.75
2022-11-16T17:22:46.825Z,9.76
2022-11-16T17:25:14.941Z,9.77
2022-11-16T17:27:42.212Z,9.83
2022-11-16T17:30:10.756Z,9.80
2022-11-16T17:32:37.945Z,9.79
2022-11-16T17:35:05.638Z,9.77
2022-11-16T17:37:32.855Z,9.79
2022-11-16T17:40:00.094Z,9.79
2022-11-16T17:42:27.367Z,9.78
2022-11-16T17:44:55.146Z,9.76
2022-11-16T17:47:22.305Z,9.78
2022-11-16T17:49:49.469Z,9.80
2022-11-16T17:52:16.763Z,9.82
2022-11-16T17:54:43.929Z,9.84
2022-11-16T17:57:11.472Z,9.80
2022-11-16T17:59:38.649Z,9.83
2022-11-16T18:02:05.836Z,9.82
2022-11-16T18:04:32.982Z,9.84
2022-11-16T18:07:01.109Z,9.79
2022-11-16T18:09:28.492Z,9.76
2022-11-16T18:11:55.766Z,9.77
2022-11-16T18:14:22.965Z,9.71
2022-11-16T18:16:50.132Z,9.71
2022-11-16T18:19:19.879Z,9.74
2022-11-16T18:21:48.769Z,9.69
2022-11-16T18:24:16.314Z,9.65
2022-11-16T18:26:43.706Z,9.62
2022-11-16T18:29:15.361Z,9.59
2022-11-16T18:31:42.854Z,9.58
2022-11-16T18:34:14.523Z,9.54
2022-11-16T18:36:41.935Z,9.52
2022-11-16T18:39:09.151Z,9.51
2022-11-16T18:41:36.421Z,9.55
2022-11-16T18:44:03.898Z,9.62
2022-11-16T18:46:33.132Z,9.54
2022-11-16T18:49:00.993Z,9.51
2022-11-16T18:51:30.587Z,9.55
2022-11-16T18:53:57.987Z,9.55
2022-11-16T18:56:25.576Z,9.55
2022-11-16T18:58:53.706Z,9.56
2022-11-16T19:01:26.209Z,9.62
2022-11-16T19:03:55.858Z,9.60
2022-11-16T19:06:23.886Z,9.61
2022-11-16T19:08:59.614Z,9.61
2022-11-16T19:11:28.710Z,9.65
2022-11-16T19:14:07.800Z,9.64
2022-11-16T19:16:35.946Z,9.62
2022-11-16T19:19:04.932Z,9.62
2022-11-16T19:21:32.200Z,9.58
2022-11-16T19:23:59.439Z,9.64
2022-11-16T19:26:27.996Z,9.62
2022-11-16T19:28:55.882Z,9.59
2022-11-16T19:31:28.865Z,9.54
2022-11-16T19:34:10.687Z,9.54
2022-11-16T19:36:37.952Z,9.54
2022-11-16T19:39:05.931Z,9.55
2022-11-16T19:41:33.338Z,9.56
2022-11-16T19:44:01.787Z,9.54
2022-11-16T19:46:32.909Z,9.59
2022-11-16T19:49:01.192Z,9.60
2022-11-16T19:51:32.272Z,9.59
2022-11-16T19:54:03.132Z,9.57
2022-11-16T19:56:30.802Z,9.56
2022-11-16T19:58:58.211Z,9.61
2022-11-16T20:01:29.092Z,9.56
2022-11-16T20:04:02.436Z,9.55
2022-11-16T20:06:38.967Z,9.53
2022-11-16T20:09:11.947Z,9.56
2022-11-16T20:11:41.562Z,9.57
2022-11-16T20:14:11.800Z,9.62
2022-11-16T20:16:43.685Z,9.56
2022-11-16T20:19:11.562Z,9.54
2022-11-16T20:21:42.815Z,9.54
2022-11-16T20:24:16.287Z,9.53
2022-11-16T20:26:48.146Z,9.52
2022-11-16T20:29:18.570Z,9.64
2022-11-16T20:31:46.976Z,9.66
2022-11-16T20:34:17.463Z,9.63
2022-11-16T20:36:49.690Z,9.64
2022-11-16T20:39:21.353Z,9.64
2022-11-16T20:41:49.358Z,9.71
2022-11-16T20:44:21.078Z,9.73
2022-11-16T20:46:50.626Z,9.73
2022-11-16T20:49:17.969Z,9.76
2022-11-16T20:51:47.572Z,9.68
2022-11-16T20:54:15.136Z,9.76
2022-11-16T20:56:42.498Z,9.74
2022-11-16T20:59:09.684Z,9.83
2022-11-16T21:01:36.969Z,9.79
2022-11-16T21:04:05.720Z,9.89
2022-11-16T21:06:33.625Z,9.87
2022-11-16T21:09:01.799Z,9.83
2022-11-16T21:11:52.871Z,9.86
2022-11-16T21:14:20.649Z,9.82
2022-11-16T21:16:47.983Z,9.80
2022-11-16T21:19:17.753Z,9.83
2022-11-16T21:21:44.931Z,9.83
2022-11-16T21:24:12.382Z,9.89
2022-11-16T21:26:39.654Z,9.90
2022-11-16T21:29:06.969Z,9.93
2022-11-16T21:31:36.667Z,9.91
2022-11-16T21:34:05.816Z,9.84
2022-11-16T21:36:33.992Z,9.90
2022-11-16T21:39:01.655Z,9.88
2022-11-16T21:41:29.401Z,9.89
2022-11-16T21:43:56.984Z,9.89
2022-11-16T21:46:26.842Z,9.84
2022-11-16T21:48:56.674Z,9.89
2022-11-16T21:51:27.247Z,9.97
2022-11-16T21:53:55.598Z,9.94
2022-11-16T21:56:26.201Z,9.94
2022-11-16T21:58:54.596Z,9.96
2022-11-16T22:01:43.685Z,9.93
2022-11-16T22:04:29.721Z,9.83
2022-11-16T22:07:15.701Z,9.80
2022-11-16T22:09:42.944Z,9.70
2022-11-16T22:12:10.162Z,9.61
2022-11-16T22:14:37.377Z,9.48
2022-11-16T22:17:04.566Z,9.47
2022-11-16T22:19:31.801Z,9.44
2022-11-16T22:21:59.429Z,9.40
2022-11-16T22:24:26.680Z,9.36
2022-11-16T22:26:53.914Z,9.39
2022-11-16T22:29:21.129Z,9.32
2022-11-16T22:31:48.318Z,9.29
2022-11-16T22:34:15.494Z,9.26
2022-11-16T22:36:42.692Z,9.25
2022-11-16T22:39:10.028Z,9.21
2022-11-16T22:41:37.246Z,9.15
2022-11-16T22:44:04.760Z,9.13
2022-11-16T22:46:32.018Z,9.10
2022-11-16T22:48:59.674Z,9.15
2022-11-16T22:51:30.069Z,9.08
2022-11-16T22:54:11.329Z,9.13
2022-11-16T22:56:39.250Z,9.12
2022-11-16T22:59:06.700Z,9.11
2022-11-16T23:01:36.238Z,9.10
2022-11-16T23:04:03.516Z,9.05
2022-11-16T23:06:31.107Z,9.07
2022-11-16T23:08:58.541Z,9.10
2022-11-16T23:11:45.984Z,9.11
2022-11-16T23:14:36.110Z,9.12
2022-11-16T23:17:04.536Z,9.08
2022-11-16T23:19:50.525Z,9.09
2022-11-16T23:22:40.225Z,9.08
2022-11-16T23:25:33.681Z,9.03
2022-11-16T23:28:14.331Z,9.05
2022-11-16T23:30:41.774Z,9.07
2022-11-16T23:33:10.624Z,9.15
2022-11-16T23:35:38.074Z,9.10
2022-11-16T23:38:07.863Z,9.13
2022-11-16T23:40:40.241Z,9.15
2022-11-16T23:43:29.146Z,9.14
2022-11-16T23:45:56.373Z,9.18
2022-11-16T23:48:23.548Z,9.25
2022-11-16T23:50:50.959Z,9.19
2022-11-16T23:53:18.161Z,9.11
2022-11-16T23:55:45.345Z,9.13
2022-11-16T23:58:15.165Z,9.20
